Time;durP1;ratioP1;P1;durP2;ratioP2;P2;SDS_P1;SDS_P2;PMS_P1;PMS_P2;Temp;Humidity;BMP_temperature;BMP_pressure;BME280_temperature;BME280_humidity;BME280_pressure;Samples;Min_cycle;Max_cycle;Signal;HPM_P1;HPM_P2
2021/08/21 00:02:04;;;;;;;;;;;25.80;59.80;;;;;;4990525;28;20466;-63
2021/08/21 00:04:31;;;;;;;;;;;25.80;59.90;;;;;;4990891;28;19930;-62
2021/08/21 00:06:58;;;;;;;;;;;25.80;59.80;;;;;;4991684;28;20016;-64
2021/08/21 00:09:25;;;;;;;;;;;25.80;59.80;;;;;;4992146;28;19994;-62
2021/08/21 00:11:52;;;;;;;;;;;25.80;59.90;;;;;;4990383;28;19926;-62
2021/08/21 00:14:19;;;;;;;;;;;25.80;59.80;;;;;;4990811;28;19969;-62
2021/08/21 00:16:46;;;;;;;;;;;25.80;59.90;;;;;;4991030;28;19925;-62
2021/08/21 00:19:13;;;;;;;;;;;25.80;59.90;;;;;;4990730;28;19926;-62
2021/08/21 00:21:40;;;;;;;;;;;25.80;59.90;;;;;;4990401;28;19945;-62
2021/08/21 00:24:07;;;;;;;;;;;25.80;59.90;;;;;;4992046;28;19933;-62
2021/08/21 00:26:34;;;;;;;;;;;25.80;59.90;;;;;;4991462;28;20001;-62
2021/08/21 00:29:02;;;;;;;;;;;25.80;59.90;;;;;;4991411;28;19930;-62
2021/08/21 00:31:29;;;;;;;;;;;25.80;59.90;;;;;;4974321;28;20402;-62
2021/08/21 00:33:56;;;;;;;;;;;25.80;59.90;;;;;;4991581;28;19926;-63
2021/08/21 00:36:23;;;;;;;;;;;25.80;59.90;;;;;;4990146;28;19976;-63
2021/08/21 00:38:51;;;;;;;;;;;25.80;59.90;;;;;;4991270;28;19973;-63
2021/08/21 00:41:18;;;;;;;;;;;25.80;59.90;;;;;;4991349;28;19926;-63
2021/08/21 00:43:45;;;;;;;;;;;25.80;59.90;;;;;;4991119;28;19926;-62
2021/08/21 00:46:12;;;;;;;;;;;25.80;59.90;;;;;;4991151;28;19926;-64
2021/08/21 00:48:39;;;;;;;;;;;25.80;59.90;;;;;;4991172;28;19930;-63
2021/08/21 00:51:06;;;;;;;;;;;25.80;59.90;;;;;;4989993;28;19926;-62
2021/08/21 00:53:33;;;;;;;;;;;25.80;59.90;;;;;;4990867;28;19972;-63
2021/08/21 00:56:02;;;;;;;;;;;25.80;59.90;;;;;;4989613;28;19987;-62
2021/08/21 00:58:30;;;;;;;;;;;25.80;59.90;;;;;;4990862;28;20013;-63
2021/08/21 01:00:57;;;;;;;;;;;25.80;59.90;;;;;;4989816;28;19930;-63
2021/08/21 01:03:24;;;;;;;;;;;25.80;59.90;;;;;;4991074;28;20016;-63
2021/08/21 01:05:51;;;;;;;;;;;25.80;59.90;;;;;;4990032;28;20343;-63
2021/08/21 01:08:19;;;;;;;;;;;25.70;59.80;;;;;;4990764;28;19934;-63
2021/08/21 01:10:46;;;;;;;;;;;25.80;59.90;;;;;;4990599;28;20369;-62
2021/08/21 01:13:13;;;;;;;;;;;25.70;59.80;;;;;;4990993;28;20038;-63
2021/08/21 01:15:40;;;;;;;;;;;25.80;60.60;;;;;;4989682;28;19955;-63
2021/08/21 01:18:07;;;;;;;;;;;25.80;59.90;;;;;;4990687;28;19940;-63
2021/08/21 01:20:35;;;;;;;;;;;25.80;59.90;;;;;;4990399;28;19933;-62
2021/08/21 01:23:03;;;;;;;;;;;25.80;59.90;;;;;;4990272;28;20013;-62
2021/08/21 01:25:30;;;;;;;;;;;25.80;60.00;;;;;;4991134;28;19926;-62
2021/08/21 01:27:57;;;;;;;;;;;25.70;59.80;;;;;;4987239;28;19929;-62
2021/08/21 01:30:24;;;;;;;;;;;25.70;59.80;;;;;;4989346;28;19969;-62
2021/08/21 01:32:52;;;;;;;;;;;25.80;59.90;;;;;;4990646;28;20328;-62
2021/08/21 01:35:19;;;;;;;;;;;25.70;59.80;;;;;;4990720;28;19925;-62
2021/08/21 01:37:46;;;;;;;;;;;25.70;59.80;;;;;;4990347;28;19926;-62
2021/08/21 01:40:14;;;;;;;;;;;25.70;59.80;;;;;;4990299;28;19926;-64
2021/08/21 01:42:42;;;;;;;;;;;25.70;59.80;;;;;;4990107;28;19925;-62
2021/08/21 01:45:13;;;;;;;;;;;25.80;59.90;;;;;;4989519;28;19932;-62
2021/08/21 01:47:40;;;;;;;;;;;25.80;59.90;;;;;;4989235;28;19930;-62
2021/08/21 01:50:09;;;;;;;;;;;25.80;59.90;;;;;;4989851;28;19971;-62
2021/08/21 01:52:36;;;;;;;;;;;25.80;59.90;;;;;;4989170;28;19930;-63
2021/08/21 01:55:04;;;;;;;;;;;25.70;59.90;;;;;;4989114;28;20421;-62
2021/08/21 01:57:31;;;;;;;;;;;25.70;59.90;;;;;;4989239;28;19987;-62
2021/08/21 01:59:57;;;;;;;;;;;25.70;59.90;;;;;;4990080;28;19933;-62
2021/08/21 02:02:25;;;;;;;;;;;25.80;59.90;;;;;;4977626;28;19926;-62
2021/08/21 02:04:52;;;;;;;;;;;25.70;59.80;;;;;;4990050;28;19929;-62
2021/08/21 02:07:19;;;;;;;;;;;25.70;59.80;;;;;;4990084;28;20404;-62
2021/08/21 02:09:46;;;;;;;;;;;25.70;59.80;;;;;;4989969;28;20338;-62
2021/08/21 02:12:16;;;;;;;;;;;25.80;59.90;;;;;;4988816;28;19968;-63
2021/08/21 02:14:43;;;;;;;;;;;25.70;59.80;;;;;;4989863;28;20389;-62
2021/08/21 02:17:11;;;;;;;;;;;25.70;59.80;;;;;;4988881;28;20401;-62
2021/08/21 02:19:38;;;;;;;;;;;25.70;59.80;;;;;;4972669;28;20389;-63
2021/08/21 02:22:05;;;;;;;;;;;25.70;59.80;;;;;;4989686;28;20017;-63
2021/08/21 02:24:34;;;;;;;;;;;25.80;59.90;;;;;;4990112;28;20009;-62
2021/08/21 02:27:01;;;;;;;;;;;25.70;59.90;;;;;;4989982;28;20374;-62
2021/08/21 02:29:29;;;;;;;;;;;25.70;59.80;;;;;;4989874;28;19976;-62
2021/08/21 02:31:56;;;;;;;;;;;25.70;59.80;;;;;;4989766;28;19926;-63
2021/08/21 02:34:24;;;;;;;;;;;25.70;59.80;;;;;;4990084;28;19934;-62
2021/08/21 02:36:51;;;;;;;;;;;25.70;59.80;;;;;;4989647;28;20346;-62
2021/08/21 02:39:18;;;;;;;;;;;25.70;59.80;;;;;;4990140;28;19961;-62
2021/08/21 02:41:46;;;;;;;;;;;25.70;59.90;;;;;;4993092;28;20338;-62
2021/08/21 02:44:13;;;;;;;;;;;25.70;59.80;;;;;;4991943;28;20431;-63
2021/08/21 02:46:40;;;;;;;;;;;25.70;59.80;;;;;;4992795;28;20419;-63
2021/08/21 02:49:08;;;;;;;;;;;25.70;59.80;;;;;;4992891;28;19997;-63
2021/08/21 02:51:35;;;;;;;;;;;25.70;59.80;;;;;;4991689;28;19929;-62
2021/08/21 02:54:02;;;;;;;;;;;25.70;59.80;;;;;;4992682;28;20016;-61
2021/08/21 02:56:29;;;;;;;;;;;25.70;59.80;;;;;;4991631;28;20378;-62
2021/08/21 02:58:56;;;;;;;;;;;25.70;59.80;;;;;;4991497;28;20297;-62
2021/08/21 03:01:23;;;;;;;;;;;25.70;59.80;;;;;;4992782;28;20274;-62
2021/08/21 03:03:50;;;;;;;;;;;25.70;59.80;;;;;;4992571;28;19969;-62
2021/08/21 03:06:17;;;;;;;;;;;25.70;59.80;;;;;;4974654;28;19926;-63
2021/08/21 03:08:44;;;;;;;;;;;25.70;59.80;;;;;;4992505;28;19969;-63
2021/08/21 03:11:11;;;;;;;;;;;25.70;59.80;;;;;;4991415;28;19976;-62
2021/08/21 03:13:40;;;;;;;;;;;25.70;59.80;;;;;;4991992;28;24636;-62
2021/08/21 03:16:07;;;;;;;;;;;25.70;59.80;;;;;;4992674;28;19925;-63
2021/08/21 03:18:34;;;;;;;;;;;25.70;59.80;;;;;;4975542;28;19926;-62
2021/08/21 03:21:01;;;;;;;;;;;25.70;59.80;;;;;;4991658;28;20354;-63
2021/08/21 03:23:28;;;;;;;;;;;25.70;59.80;;;;;;4991773;28;19969;-63
2021/08/21 03:25:55;;;;;;;;;;;25.70;59.80;;;;;;4992310;28;19961;-62
2021/08/21 03:28:22;;;;;;;;;;;25.70;59.80;;;;;;4991540;28;19969;-62
2021/08/21 03:30:49;;;;;;;;;;;25.70;59.80;;;;;;4975345;28;19929;-62
2021/08/21 03:33:16;;;;;;;;;;;25.70;59.80;;;;;;4992667;28;20374;-63
2021/08/21 03:35:43;;;;;;;;;;;25.70;59.80;;;;;;4992526;28;19976;-62
2021/08/21 03:38:10;;;;;;;;;;;25.70;59.80;;;;;;4992441;28;19976;-63
2021/08/21 03:40:37;;;;;;;;;;;25.70;59.80;;;;;;4990928;28;19973;-62
2021/08/21 03:43:04;;;;;;;;;;;25.70;59.80;;;;;;4991570;28;20004;-62
2021/08/21 03:45:31;;;;;;;;;;;25.70;59.80;;;;;;4992068;28;19925;-62
2021/08/21 03:47:58;;;;;;;;;;;25.70;59.70;;;;;;4990882;28;20437;-62
2021/08/21 03:50:25;;;;;;;;;;;25.70;59.80;;;;;;4989919;28;19933;-63
2021/08/21 03:52:52;;;;;;;;;;;25.70;59.80;;;;;;4991861;28;20308;-63
2021/08/21 03:55:19;;;;;;;;;;;25.70;59.80;;;;;;4991728;28;19926;-63
2021/08/21 03:57:46;;;;;;;;;;;25.70;59.80;;;;;;4990726;28;20431;-63
2021/08/21 04:00:13;;;;;;;;;;;25.70;59.80;;;;;;4990750;28;20008;-63
2021/08/21 04:02:40;;;;;;;;;;;25.70;59.80;;;;;;4991934;28;19929;-64
2021/08/21 04:05:08;;;;;;;;;;;25.70;59.80;;;;;;4990642;28;19979;-64
2021/08/21 04:07:34;;;;;;;;;;;25.70;59.80;;;;;;4992017;28;20038;-63
2021/08/21 04:10:02;;;;;;;;;;;25.70;59.80;;;;;;4991379;28;19925;-64
2021/08/21 04:12:29;;;;;;;;;;;25.70;59.80;;;;;;4990769;28;19926;-63
2021/08/21 04:14:56;;;;;;;;;;;25.70;59.80;;;;;;4991051;28;19926;-63
2021/08/21 04:17:25;;;;;;;;;;;25.70;59.80;;;;;;4990637;28;19976;-63
2021/08/21 04:20:04;;;;;;;;;;;25.70;59.80;;;;;;4990319;28;19926;-63
2021/08/21 04:22:31;;;;;;;;;;;25.70;59.70;;;;;;4989982;28;20271;-62
2021/08/21 04:24:58;;;;;;;;;;;25.70;59.70;;;;;;4991654;28;20031;-62
2021/08/21 04:27:26;;;;;;;;;;;25.70;59.60;;;;;;4991132;28;19926;-62
2021/08/21 04:29:53;;;;;;;;;;;25.70;59.60;;;;;;4991320;28;19934;-63
2021/08/21 04:32:20;;;;;;;;;;;25.70;59.60;;;;;;4973101;28;19979;-62
2021/08/21 04:34:47;;;;;;;;;;;25.70;59.60;;;;;;4990032;28;19940;-62
2021/08/21 04:37:14;;;;;;;;;;;25.70;59.60;;;;;;4990561;28;19925;-64
2021/08/21 04:39:41;;;;;;;;;;;25.80;59.70;;;;;;4990717;28;20427;-62
2021/08/21 04:42:09;;;;;;;;;;;25.70;59.60;;;;;;4989837;28;19971;-62
2021/08/21 04:44:36;;;;;;;;;;;25.70;59.60;;;;;;4991100;28;20386;-62
2021/08/21 04:47:04;;;;;;;;;;;25.70;59.50;;;;;;4989976;28;20450;-62
2021/08/21 04:49:31;;;;;;;;;;;25.70;59.50;;;;;;4991214;28;19994;-62
2021/08/21 04:51:59;;;;;;;;;;;25.80;59.50;;;;;;4990332;28;19925;-63
2021/08/21 04:54:26;;;;;;;;;;;25.80;59.50;;;;;;4989563;28;20016;-62
2021/08/21 04:56:54;;;;;;;;;;;25.80;59.40;;;;;;4991052;28;19930;-62
2021/08/21 04:59:21;;;;;;;;;;;25.80;59.40;;;;;;4989906;28;19926;-62
2021/08/21 05:01:48;;;;;;;;;;;25.80;59.40;;;;;;4990893;28;19959;-62
2021/08/21 05:04:16;;;;;;;;;;;25.80;59.40;;;;;;4989951;28;20329;-62
2021/08/21 05:06:43;;;;;;;;;;;25.80;59.40;;;;;;4989714;28;19932;-62
2021/08/21 05:09:10;;;;;;;;;;;25.80;59.30;;;;;;4990847;28;19926;-62
2021/08/21 05:11:37;;;;;;;;;;;25.80;59.20;;;;;;4990597;28;19977;-62
2021/08/21 05:14:04;;;;;;;;;;;25.80;59.20;;;;;;4991140;28;19961;-62
2021/08/21 05:16:31;;;;;;;;;;;25.80;59.20;;;;;;4990895;28;20326;-64
2021/08/21 05:19:05;;;;;;;;;;;25.90;59.20;;;;;;4989947;28;20354;-62
2021/08/21 05:21:36;;;;;;;;;;;25.90;59.20;;;;;;4990185;28;19973;-62
2021/08/21 05:24:03;;;;;;;;;;;25.90;59.20;;;;;;4990562;28;20004;-62
2021/08/21 05:26:30;;;;;;;;;;;25.90;59.20;;;;;;4990426;28;19937;-62
2021/08/21 05:28:57;;;;;;;;;;;25.90;59.10;;;;;;4990628;28;20005;-62
2021/08/21 05:31:24;;;;;;;;;;;25.90;59.10;;;;;;4990478;28;19965;-62
2021/08/21 05:33:52;;;;;;;;;;;25.90;59.10;;;;;;4990603;28;20293;-63
2021/08/21 05:36:19;;;;;;;;;;;25.90;59.00;;;;;;4990274;28;19926;-62
2021/08/21 05:38:46;;;;;;;;;;;25.90;59.00;;;;;;4989653;28;19926;-62
2021/08/21 05:41:13;;;;;;;;;;;25.90;59.00;;;;;;4953733;28;19980;-62
2021/08/21 05:43:40;;;;;;;;;;;25.90;58.90;;;;;;4981751;28;20008;-62
2021/08/21 05:46:07;;;;;;;;;;;26.00;58.90;;;;;;4989450;28;20361;-62
2021/08/21 05:48:34;;;;;;;;;;;26.00;58.90;;;;;;4989366;28;20297;-62
2021/08/21 05:51:02;;;;;;;;;;;26.00;58.80;;;;;;4990056;28;20031;-63
2021/08/21 05:53:29;;;;;;;;;;;26.00;58.80;;;;;;4990085;28;19976;-62
2021/08/21 05:55:56;;;;;;;;;;;26.00;58.80;;;;;;4989637;28;19930;-62
2021/08/21 05:58:23;;;;;;;;;;;26.00;58.80;;;;;;4989083;28;19965;-62
2021/08/21 06:00:51;;;;;;;;;;;26.00;58.70;;;;;;4988956;28;19965;-62
2021/08/21 06:03:19;;;;;;;;;;;26.10;58.70;;;;;;4990148;28;19992;-62
2021/08/21 06:05:46;;;;;;;;;;;26.10;58.80;;;;;;4989958;28;19925;-62
2021/08/21 06:08:13;;;;;;;;;;;26.10;58.70;;;;;;4990057;28;19975;-62
2021/08/21 06:10:41;;;;;;;;;;;26.10;58.60;;;;;;4989745;28;20445;-62
2021/08/21 06:13:09;;;;;;;;;;;26.10;58.60;;;;;;4989144;28;20004;-62
2021/08/21 06:15:36;;;;;;;;;;;26.10;58.60;;;;;;4992646;28;19926;-62
2021/08/21 06:18:03;;;;;;;;;;;26.10;58.60;;;;;;4993745;28;20390;-63
2021/08/21 06:20:30;;;;;;;;;;;26.10;58.50;;;;;;4993473;28;19972;-62
2021/08/21 06:22:58;;;;;;;;;;;26.10;58.50;;;;;;4992018;28;19981;-62
2021/08/21 06:25:25;;;;;;;;;;;26.10;58.50;;;;;;4993050;28;20020;-62
2021/08/21 06:27:52;;;;;;;;;;;26.10;58.50;;;;;;4992883;28;19926;-63
2021/08/21 06:30:20;;;;;;;;;;;26.10;58.40;;;;;;4993005;28;19975;-62
2021/08/21 06:32:47;;;;;;;;;;;26.20;58.40;;;;;;4991861;28;20016;-63
2021/08/21 06:35:14;;;;;;;;;;;26.20;58.40;;;;;;4992217;28;19991;-62
2021/08/21 06:37:41;;;;;;;;;;;26.20;58.40;;;;;;4992242;28;19976;-62
2021/08/21 06:40:09;;;;;;;;;;;26.20;59.00;;;;;;4992937;28;19969;-62
2021/08/21 06:42:36;;;;;;;;;;;26.20;58.40;;;;;;4991864;28;20024;-63
2021/08/21 06:45:03;;;;;;;;;;;26.20;58.40;;;;;;4993053;28;19966;-62
2021/08/21 06:47:30;;;;;;;;;;;26.20;58.30;;;;;;4974617;28;19926;-63
2021/08/21 06:49:57;;;;;;;;;;;26.20;58.30;;;;;;4992875;28;19926;-62
2021/08/21 06:52:24;;;;;;;;;;;26.20;58.30;;;;;;4991794;28;19933;-62
2021/08/21 06:54:51;;;;;;;;;;;26.20;58.30;;;;;;4991298;28;20362;-62
2021/08/21 06:57:18;;;;;;;;;;;26.20;58.20;;;;;;4992725;28;19961;-62
2021/08/21 06:59:45;;;;;;;;;;;26.20;58.20;;;;;;4991946;28;19965;-62
2021/08/21 07:02:12;;;;;;;;;;;26.20;58.20;;;;;;4992951;28;19926;-63
2021/08/21 07:04:42;;;;;;;;;;;26.20;58.20;;;;;;4991982;28;20320;-62
2021/08/21 07:07:09;;;;;;;;;;;26.20;58.20;;;;;;4993051;28;19969;-62
2021/08/21 07:09:36;;;;;;;;;;;26.30;58.20;;;;;;4992998;28;20336;-63
2021/08/21 07:12:04;;;;;;;;;;;26.30;58.10;;;;;;4991705;28;20323;-62
2021/08/21 07:14:31;;;;;;;;;;;26.20;58.10;;;;;;5007078;28;19926;-62
2021/08/21 07:16:58;;;;;;;;;;;26.30;58.10;;;;;;4991359;28;19925;-62
2021/08/21 07:19:25;;;;;;;;;;;26.30;58.10;;;;;;4992424;28;20416;-62
2021/08/21 07:21:53;;;;;;;;;;;26.30;58.10;;;;;;4992463;28;19961;-62
2021/08/21 07:24:21;;;;;;;;;;;26.30;58.10;;;;;;4975250;28;20319;-62
2021/08/21 07:26:48;;;;;;;;;;;26.30;58.00;;;;;;4975052;28;20013;-61
2021/08/21 07:29:15;;;;;;;;;;;26.30;58.00;;;;;;4992398;28;19926;-62
2021/08/21 07:31:43;;;;;;;;;;;26.30;58.00;;;;;;4992083;28;19926;-62
2021/08/21 07:34:10;;;;;;;;;;;26.30;58.00;;;;;;4992181;28;20020;-62
2021/08/21 07:36:37;;;;;;;;;;;26.30;58.00;;;;;;4991087;28;19971;-62
2021/08/21 07:39:04;;;;;;;;;;;26.40;58.00;;;;;;4991842;28;20024;-62
2021/08/21 07:41:35;;;;;;;;;;;26.30;57.90;;;;;;4991000;28;20017;-62
2021/08/21 07:44:02;;;;;;;;;;;26.40;58.00;;;;;;4991932;28;19960;-62
2021/08/21 07:46:30;;;;;;;;;;;26.40;57.90;;;;;;4992295;28;20336;-62
2021/08/21 07:48:57;;;;;;;;;;;26.40;57.90;;;;;;4990932;28;19943;-61
2021/08/21 07:51:25;;;;;;;;;;;26.40;57.90;;;;;;4974763;28;20381;-62
2021/08/21 07:53:52;;;;;;;;;;;26.40;57.90;;;;;;4992050;28;19926;-62
2021/08/21 07:56:19;;;;;;;;;;;26.40;57.90;;;;;;4990754;28;19930;-62
2021/08/21 07:58:46;;;;;;;;;;;26.40;57.90;;;;;;4990581;28;19967;-62
2021/08/21 08:01:14;;;;;;;;;;;26.40;57.90;;;;;;4990666;28;19933;-63
2021/08/21 08:03:41;;;;;;;;;;;26.40;57.80;;;;;;4991777;28;20381;-62
2021/08/21 08:06:08;;;;;;;;;;;26.40;57.80;;;;;;4974011;28;19933;-62
2021/08/21 08:08:36;;;;;;;;;;;26.40;57.80;;;;;;4991388;28;20031;-62
2021/08/21 08:11:03;;;;;;;;;;;26.40;57.80;;;;;;4990699;28;19926;-63
2021/08/21 08:13:30;;;;;;;;;;;26.40;57.80;;;;;;4991711;28;20433;-62
2021/08/21 08:15:58;;;;;;;;;;;26.40;57.80;;;;;;4991827;28;20308;-62
2021/08/21 08:18:25;;;;;;;;;;;26.40;57.80;;;;;;4990850;28;20351;-63
2021/08/21 08:20:52;;;;;;;;;;;26.40;57.80;;;;;;4991434;28;19977;-62
2021/08/21 08:23:19;;;;;;;;;;;26.50;57.90;;;;;;4991433;28;19972;-62
2021/08/21 08:25:46;;;;;;;;;;;26.50;57.90;;;;;;4990916;28;20397;-62
2021/08/21 08:28:14;;;;;;;;;;;26.50;57.90;;;;;;4991267;28;19930;-62
2021/08/21 08:30:42;;;;;;;;;;;26.50;57.90;;;;;;4990622;28;19976;-62
2021/08/21 08:33:09;;;;;;;;;;;26.50;57.90;;;;;;4991394;28;19933;-62
2021/08/21 08:35:36;;;;;;;;;;;26.50;57.90;;;;;;4991159;28;20021;-62
2021/08/21 08:38:04;;;;;;;;;;;26.50;57.90;;;;;;4990687;28;19926;-62
2021/08/21 08:40:31;;;;;;;;;;;26.50;57.90;;;;;;4991421;28;19926;-61
2021/08/21 08:43:01;;;;;;;;;;;26.50;57.90;;;;;;4991080;28;20431;-62
2021/08/21 08:45:29;;;;;;;;;;;26.50;58.00;;;;;;4989958;28;19926;-62
2021/08/21 08:47:56;;;;;;;;;;;26.50;58.00;;;;;;4991019;28;19926;-62
2021/08/21 08:50:24;;;;;;;;;;;26.50;58.00;;;;;;4990255;28;19926;-62
2021/08/21 08:52:53;;;;;;;;;;;26.50;58.00;;;;;;4990036;28;19933;-62
2021/08/21 08:55:22;;;;;;;;;;;26.50;58.10;;;;;;4990752;28;19932;-62
2021/08/21 08:57:50;;;;;;;;;;;26.50;58.10;;;;;;4990854;28;19926;-62
2021/08/21 09:00:19;;;;;;;;;;;26.50;58.20;;;;;;4990305;28;20360;-62
2021/08/21 09:02:48;;;;;;;;;;;26.50;58.20;;;;;;4990072;28;19926;-62
2021/08/21 09:05:16;;;;;;;;;;;26.40;58.10;;;;;;4972807;28;19930;-62
2021/08/21 09:07:44;;;;;;;;;;;26.40;58.10;;;;;;4990692;28;19975;-62
2021/08/21 09:10:19;;;;;;;;;;;26.50;58.30;;;;;;4991220;28;19987;-62
2021/08/21 09:12:47;;;;;;;;;;;26.40;58.20;;;;;;4990677;28;19930;-62
2021/08/21 09:15:18;;;;;;;;;;;26.40;58.30;;;;;;4990802;28;19971;-62
2021/08/21 09:18:11;;;;;;;;;;;26.50;58.90;;;;;;4990827;28;20028;-61
2021/08/21 09:20:47;;;;;;;;;;;26.50;58.40;;;;;;4971527;28;20005;-62
2021/08/21 09:23:17;;;;;;;;;;;26.50;58.40;;;;;;4974153;28;19964;-62
2021/08/21 09:25:45;;;;;;;;;;;26.50;58.40;;;;;;4973472;28;20048;-62
2021/08/21 09:28:23;;;;;;;;;;;26.50;58.40;;;;;;4972543;28;19925;-63
2021/08/21 09:31:02;;;;;;;;;;;26.50;58.40;;;;;;4972948;28;19934;-62
2021/08/21 09:33:30;;;;;;;;;;;26.50;58.40;;;;;;4990629;28;20404;-62
2021/08/21 09:35:58;;;;;;;;;;;26.50;58.40;;;;;;4990035;28;19933;-62
2021/08/21 09:38:32;;;;;;;;;;;26.50;58.40;;;;;;4990364;28;19936;-62
2021/08/21 09:41:01;;;;;;;;;;;26.50;58.40;;;;;;4990113;28;20024;-63
2021/08/21 09:43:33;;;;;;;;;;;26.50;58.40;;;;;;4989613;28;19926;-63
2021/08/21 09:46:12;;;;;;;;;;;26.50;58.40;;;;;;4990870;28;19936;-63
2021/08/21 09:48:58;;;;;;;;;;;26.50;58.40;;;;;;4990701;28;20098;-63
2021/08/21 09:51:39;;;;;;;;;;;26.50;58.40;;;;;;4975691;28;20017;-62
2021/08/21 09:54:08;;;;;;;;;;;26.50;58.30;;;;;;4977850;28;19926;-63
2021/08/21 09:56:36;;;;;;;;;;;26.60;58.40;;;;;;4975627;28;19988;-63
2021/08/21 09:59:04;;;;;;;;;;;26.60;58.40;;;;;;4993956;28;20024;-62
2021/08/21 10:01:32;;;;;;;;;;;26.60;58.40;;;;;;4993835;28;19930;-63
2021/08/21 10:04:00;;;;;;;;;;;26.60;58.40;;;;;;4992483;28;19973;-65
2021/08/21 10:06:27;;;;;;;;;;;26.60;58.40;;;;;;4992835;28;19925;-62
2021/08/21 10:09:08;;;;;;;;;;;26.60;58.40;;;;;;4975220;28;19973;-63
2021/08/21 10:11:35;;;;;;;;;;;26.60;58.40;;;;;;4993534;28;19930;-63
2021/08/21 10:14:03;;;;;;;;;;;26.60;58.40;;;;;;4992988;28;19930;-63
2021/08/21 10:16:31;;;;;;;;;;;26.60;58.40;;;;;;4993373;28;19926;-63
2021/08/21 10:18:59;;;;;;;;;;;26.60;58.50;;;;;;4993535;28;19994;-62
2021/08/21 10:21:26;;;;;;;;;;;26.60;58.50;;;;;;4993215;28;20013;-63
2021/08/21 10:23:54;;;;;;;;;;;26.60;58.40;;;;;;4993257;28;19930;-63
2021/08/21 10:26:24;;;;;;;;;;;26.60;58.50;;;;;;4993277;28;20409;-63
2021/08/21 10:28:52;;;;;;;;;;;26.60;58.50;;;;;;4993448;28;19932;-63
2021/08/21 10:31:39;;;;;;;;;;;26.60;58.50;;;;;;4993185;28;20032;-63
2021/08/21 10:34:07;;;;;;;;;;;26.60;58.50;;;;;;4992162;28;20393;-62
2021/08/21 10:36:48;;;;;;;;;;;26.60;58.50;;;;;;4974758;28;19980;-62
2021/08/21 10:39:18;;;;;;;;;;;26.60;58.50;;;;;;4993148;28;20339;-64
2021/08/21 10:41:46;;;;;;;;;;;26.60;58.50;;;;;;4992866;28;19969;-64
2021/08/21 10:44:52;;;;;;;;;;;26.70;58.50;;;;;;4992852;28;19972;-63
2021/08/21 10:47:33;;;;;;;;;;;26.60;58.50;;;;;;4931835;29;19965;-63
2021/08/21 10:50:01;;;;;;;;;;;26.70;58.50;;;;;;4917520;29;19961;-62
2021/08/21 10:52:48;;;;;;;;;;;26.60;58.50;;;;;;4918548;29;19970;-62
2021/08/21 10:55:19;;;;;;;;;;;26.60;58.50;;;;;;4928708;29;19927;-63
2021/08/21 10:58:06;;;;;;;;;;;26.60;58.50;;;;;;4932750;28;19977;-63
2021/08/21 11:00:39;;;;;;;;;;;26.70;58.60;;;;;;4915997;29;19927;-63
2021/08/21 11:03:07;;;;;;;;;;;26.60;58.50;;;;;;4916495;29;19927;-63
2021/08/21 11:06:09;;;;;;;;;;;26.60;58.50;;;;;;4916491;28;20438;-62
2021/08/21 11:08:39;;;;;;;;;;;26.70;58.60;;;;;;4895052;28;19939;-63
2021/08/21 11:14:01;;;;;;;;;;;26.70;58.50;;;;;;4897901;28;19942;-63
2021/08/21 11:16:57;;;;;;;;;;;26.70;58.60;;;;;;4895996;28;20082;-63
2021/08/21 11:19:27;;;;;;;;;;;26.70;58.60;;;;;;4913785;28;20023;-63
2021/08/21 11:22:12;;;;;;;;;;;26.70;58.60;;;;;;4912789;28;19934;-62
2021/08/21 11:24:56;;;;;;;;;;;26.70;58.60;;;;;;4913510;28;19974;-64
2021/08/21 11:27:25;;;;;;;;;;;26.70;58.60;;;;;;4913482;28;19927;-62
2021/08/21 11:30:05;;;;;;;;;;;26.70;58.60;;;;;;4913429;28;19999;-62
2021/08/21 11:32:33;;;;;;;;;;;26.70;58.50;;;;;;4913533;28;20422;-63
2021/08/21 11:35:00;;;;;;;;;;;26.70;58.60;;;;;;4913531;28;19931;-63
2021/08/21 11:37:29;;;;;;;;;;;26.70;58.60;;;;;;4913404;28;19935;-63
2021/08/21 11:39:56;;;;;;;;;;;26.70;58.60;;;;;;4913478;28;20026;-62
2021/08/21 11:42:23;;;;;;;;;;;26.70;58.60;;;;;;4913160;29;19931;-63
2021/08/21 11:44:55;;;;;;;;;;;26.70;58.60;;;;;;4964208;28;19989;-62
2021/08/21 11:47:29;;;;;;;;;;;26.70;58.60;;;;;;4959082;28;19926;-63
2021/08/21 11:49:56;;;;;;;;;;;26.70;58.60;;;;;;4991975;28;19936;-62
2021/08/21 11:52:23;;;;;;;;;;;26.70;58.60;;;;;;4991933;28;20004;-63
2021/08/21 11:54:52;;;;;;;;;;;26.70;58.60;;;;;;4991695;28;20374;-63
2021/08/21 11:57:19;;;;;;;;;;;26.70;58.60;;;;;;4991126;28;20020;-63
2021/08/21 11:59:46;;;;;;;;;;;26.70;58.60;;;;;;4975243;28;19949;-63
2021/08/21 12:02:14;;;;;;;;;;;26.70;58.60;;;;;;4991459;28;19933;-63
2021/08/21 12:04:54;;;;;;;;;;;26.70;58.60;;;;;;4991764;28;19933;-62
2021/08/21 12:07:34;;;;;;;;;;;26.70;58.60;;;;;;4991354;28;19964;-62
2021/08/21 12:10:01;;;;;;;;;;;26.70;58.60;;;;;;4991578;28;19926;-62
2021/08/21 12:12:31;;;;;;;;;;;26.70;58.60;;;;;;4989993;28;19932;-62
2021/08/21 12:14:58;;;;;;;;;;;26.70;58.60;;;;;;4991447;28;19925;-62
2021/08/21 12:17:27;;;;;;;;;;;26.60;58.60;;;;;;4992148;28;20048;-63
2021/08/21 12:19:54;;;;;;;;;;;26.60;58.60;;;;;;4989764;28;19940;-63
2021/08/21 12:22:22;;;;;;;;;;;26.60;58.60;;;;;;4991828;28;20005;-63
2021/08/21 12:24:52;;;;;;;;;;;26.70;58.70;;;;;;4990419;28;19930;-63
2021/08/21 12:27:26;;;;;;;;;;;26.60;58.60;;;;;;4991336;28;20032;-62
2021/08/21 12:30:13;;;;;;;;;;;26.60;58.60;;;;;;4990746;28;19926;-62
2021/08/21 12:32:41;;;;;;;;;;;26.60;58.60;;;;;;4990428;28;19983;-63
2021/08/21 12:35:12;;;;;;;;;;;26.70;58.60;;;;;;4991352;28;20340;-63
2021/08/21 12:37:39;;;;;;;;;;;26.60;58.60;;;;;;4991221;28;20000;-62
2021/08/21 12:40:14;;;;;;;;;;;26.60;58.70;;;;;;4991223;28;20012;-62
2021/08/21 12:42:42;;;;;;;;;;;26.60;58.70;;;;;;4990170;28;19926;-64
2021/08/21 12:45:25;;;;;;;;;;;26.60;58.70;;;;;;4990138;28;19925;-63
2021/08/21 12:47:52;;;;;;;;;;;26.60;58.70;;;;;;4990387;28;19932;-63
2021/08/21 12:50:21;;;;;;;;;;;26.60;58.70;;;;;;4989914;28;20415;-63
2021/08/21 12:53:01;;;;;;;;;;;26.60;58.70;;;;;;4990930;28;19925;-64
2021/08/21 12:55:30;;;;;;;;;;;26.60;58.70;;;;;;4990515;28;20407;-64
2021/08/21 12:58:08;;;;;;;;;;;26.60;58.70;;;;;;4991079;28;19991;-63
2021/08/21 13:00:36;;;;;;;;;;;26.60;58.70;;;;;;4989795;28;19930;-64
2021/08/21 13:03:16;;;;;;;;;;;26.60;58.70;;;;;;4990471;28;20223;-64
2021/08/21 13:05:54;;;;;;;;;;;26.60;58.70;;;;;;4990746;28;19948;-63
2021/08/21 13:08:31;;;;;;;;;;;26.60;58.70;;;;;;4990593;28;19926;-63
2021/08/21 13:10:58;;;;;;;;;;;26.60;58.70;;;;;;4990675;28;19930;-63
2021/08/21 13:13:26;;;;;;;;;;;26.60;58.70;;;;;;4990015;28;19980;-64
2021/08/21 13:15:53;;;;;;;;;;;26.60;58.60;;;;;;4991041;28;20270;-63
2021/08/21 13:18:20;;;;;;;;;;;26.60;58.60;;;;;;4990768;28;19926;-64
2021/08/21 13:20:47;;;;;;;;;;;26.60;58.60;;;;;;4972463;28;20445;-63
2021/08/21 13:23:14;;;;;;;;;;;26.60;58.60;;;;;;4990919;28;19975;-64
2021/08/21 13:25:42;;;;;;;;;;;26.60;58.60;;;;;;4990469;28;19971;-63
2021/08/21 13:28:09;;;;;;;;;;;26.60;58.60;;;;;;4990648;28;19929;-63
2021/08/21 13:30:36;;;;;;;;;;;26.60;58.60;;;;;;4990873;28;19969;-63
2021/08/21 13:33:03;;;;;;;;;;;26.60;58.60;;;;;;4990504;28;20389;-63
2021/08/21 13:35:30;;;;;;;;;;;26.60;58.50;;;;;;4990386;28;19926;-63
2021/08/21 13:37:58;;;;;;;;;;;26.70;58.50;;;;;;4972575;28;20356;-64
2021/08/21 13:40:25;;;;;;;;;;;26.60;58.50;;;;;;4990247;28;19929;-63
2021/08/21 13:42:52;;;;;;;;;;;26.70;58.40;;;;;;4990712;28;20289;-63
2021/08/21 13:45:19;;;;;;;;;;;26.70;58.40;;;;;;4989233;28;19969;-63
2021/08/21 13:47:47;;;;;;;;;;;26.70;58.40;;;;;;4989354;28;19929;-63
2021/08/21 13:50:15;;;;;;;;;;;26.70;58.40;;;;;;4989296;28;19933;-63
2021/08/21 13:52:42;;;;;;;;;;;26.70;58.30;;;;;;4956359;28;19941;-63
2021/08/21 13:55:09;;;;;;;;;;;26.70;58.30;;;;;;4989360;28;19926;-64
2021/08/21 13:57:37;;;;;;;;;;;26.70;58.20;;;;;;4990142;28;19929;-64
2021/08/21 14:00:05;;;;;;;;;;;26.80;58.20;;;;;;4990412;28;19926;-64
2021/08/21 14:02:33;;;;;;;;;;;26.80;58.20;;;;;;4989159;28;20009;-63
2021/08/21 14:05:00;;;;;;;;;;;26.80;58.10;;;;;;4990361;28;19940;-64
2021/08/21 14:07:28;;;;;;;;;;;26.80;58.10;;;;;;4990076;28;20431;-63
2021/08/21 14:09:55;;;;;;;;;;;26.80;58.10;;;;;;4990085;28;19926;-64
2021/08/21 14:12:22;;;;;;;;;;;26.80;58.10;;;;;;4989019;28;19926;-63
2021/08/21 14:14:52;;;;;;;;;;;26.80;58.00;;;;;;4988937;28;19980;-64
2021/08/21 14:17:20;;;;;;;;;;;26.80;58.00;;;;;;4989977;28;20000;-63
2021/08/21 14:19:47;;;;;;;;;;;26.80;58.00;;;;;;4989091;28;19961;-63
2021/08/21 14:22:15;;;;;;;;;;;26.80;58.10;;;;;;4972767;28;19926;-63
2021/08/21 14:24:42;;;;;;;;;;;26.80;58.10;;;;;;4989759;28;20389;-63
2021/08/21 14:27:09;;;;;;;;;;;26.80;58.10;;;;;;4989721;28;19930;-63
2021/08/21 14:29:36;;;;;;;;;;;26.70;58.10;;;;;;4989837;28;19937;-63